Time;durP1;ratioP1;P1;durP2;ratioP2;P2;SDS_P1;SDS_P2;PMS_P1;PMS_P2;Temp;Humidity;BMP_temperature;BMP_pressure;BME280_temperature;BME280_humidity;BME280_pressure;Samples;Min_cycle;Max_cycle;Signal;HPM_P1;HPM_P2
2022/09/23 00:01:29;;;;;;;26.43;22.50;;;;;;;;;;5045271;28;20075;-60
2022/09/23 00:03:55;;;;;;;30.00;24.87;;;;;;;;;;5043096;28;20084;-60
2022/09/23 00:06:22;;;;;;;27.70;22.00;;;;;;;;;;5039572;28;20041;-60
2022/09/23 00:08:49;;;;;;;27.87;22.03;;;;;;;;;;5041383;28;20495;-60
2022/09/23 00:11:17;;;;;;;28.07;22.40;;;;;;;;;;5040051;28;20052;-60
2022/09/23 00:13:44;;;;;;;27.77;23.50;;;;;;;;;;5044171;28;20040;-60
2022/09/23 00:16:11;;;;;;;32.70;23.87;;;;;;;;;;5040382;28;20116;-60
2022/09/23 00:18:37;;;;;;;31.97;24.90;;;;;;;;;;5042053;28;20033;-60
2022/09/23 00:21:07;;;;;;;31.43;24.70;;;;;;;;;;5041672;28;20525;-60
2022/09/23 00:23:33;;;;;;;35.50;26.90;;;;;;;;;;5039861;28;20068;-60
2022/09/23 00:26:00;;;;;;;29.67;24.07;;;;;;;;;;5038335;28;20044;-59
2022/09/23 00:28:26;;;;;;;32.27;24.87;;;;;;;;;;5039528;28;20041;-60
2022/09/23 00:30:52;;;;;;;34.90;26.27;;;;;;;;;;5043117;28;20422;-59
2022/09/23 00:33:18;;;;;;;34.93;26.40;;;;;;;;;;5035875;28;20045;-59
2022/09/23 00:35:44;;;;;;;33.33;26.53;;;;;;;;;;5044286;28;20099;-60
2022/09/23 00:38:10;;;;;;;35.03;26.30;;;;;;;;;;5039635;28;20128;-60
2022/09/23 00:40:42;;;;;;;32.87;26.20;;;;;;;;;;5036285;28;20156;-60
2022/09/23 00:43:08;;;;;;;41.43;28.50;;;;;;;;;;5036874;28;20569;-60
2022/09/23 00:45:35;;;;;;;37.93;27.87;;;;;;;;;;5042338;28;20090;-60
2022/09/23 00:48:02;;;;;;;35.97;27.83;;;;;;;;;;5043679;28;20050;-60
2022/09/23 00:50:36;;;;;;;39.87;27.83;;;;;;;;;;5039788;28;20750;-60
2022/09/23 00:53:10;;;;;;;34.17;27.77;;;;;;;;;;5041713;28;20040;-60
2022/09/23 00:55:47;;;;;;;36.60;29.57;;;;;;;;;;5041290;28;20050;-60
2022/09/23 00:58:15;;;;;;;34.37;27.87;;;;;;;;;;5039413;28;20751;-60
2022/09/23 01:00:41;;;;;;;42.13;29.50;;;;;;;;;;5040306;28;20049;-60
2022/09/23 01:03:08;;;;;;;39.27;29.43;;;;;;;;;;5037969;28;20580;-59
2022/09/23 01:05:35;;;;;;;37.53;29.07;;;;;;;;;;5040090;28;20773;-60
2022/09/23 01:08:02;;;;;;;42.53;31.37;;;;;;;;;;5038721;28;20587;-60
2022/09/23 01:10:40;;;;;;;44.23;32.90;;;;;;;;;;5043482;28;20044;-60
2022/09/23 01:13:06;;;;;;;40.53;29.80;;;;;;;;;;5039381;28;20040;-60
2022/09/23 01:15:32;;;;;;;33.07;27.10;;;;;;;;;;5035189;28;20041;-61
2022/09/23 01:18:17;;;;;;;34.47;28.17;;;;;;;;;;5039812;28;20059;-61
2022/09/23 01:20:49;;;;;;;34.47;28.50;;;;;;;;;;5039896;28;20499;-61
2022/09/23 01:23:27;;;;;;;35.43;27.27;;;;;;;;;;5041019;28;20049;-60
2022/09/23 01:25:56;;;;;;;37.03;29.87;;;;;;;;;;5036107;28;20088;-61
2022/09/23 01:28:36;;;;;;;36.53;28.27;;;;;;;;;;5036810;28;20092;-61
2022/09/23 01:31:05;;;;;;;40.90;29.93;;;;;;;;;;5039169;28;20044;-61
2022/09/23 01:33:47;;;;;;;37.30;29.57;;;;;;;;;;5039891;28;20503;-60
2022/09/23 01:36:25;;;;;;;38.70;30.77;;;;;;;;;;5039740;28;20059;-61
2022/09/23 01:39:17;;;;;;;40.87;28.57;;;;;;;;;;5038303;28;20061;-61
2022/09/23 01:41:53;;;;;;;40.67;30.60;;;;;;;;;;5039318;28;20044;-60
2022/09/23 01:44:24;;;;;;;47.00;35.20;;;;;;;;;;5039195;28;20052;-61
2022/09/23 01:47:13;;;;;;;42.50;33.27;;;;;;;;;;5036848;28;20049;-61
2022/09/23 01:49:44;;;;;;;33.47;24.80;;;;;;;;;;5038531;28;20048;-61
2022/09/23 01:52:28;;;;;;;44.53;33.40;;;;;;;;;;5043498;28;20091;-60
2022/09/23 01:54:54;;;;;;;;;;;;;;;;;;5049873;28;20503;-60
2022/09/23 01:57:27;;;;;;;44.10;29.80;;;;;;;;;;5048865;28;20019;-60
2022/09/23 01:59:56;;;;;;;39.80;30.92;;;;;;;;;;5048798;28;20045;-59
2022/09/23 02:02:35;;;;;;;40.30;32.63;;;;;;;;;;5048793;28;20103;-60
2022/09/23 02:05:13;;;;;;;37.30;30.43;;;;;;;;;;5049575;28;20136;-60
2022/09/23 02:07:42;;;;;;;40.47;31.53;;;;;;;;;;5048609;28;20091;-60
2022/09/23 02:10:17;;;;;;;39.23;29.70;;;;;;;;;;5048929;28;20052;-60
2022/09/23 02:12:46;;;;;;;39.50;32.37;;;;;;;;;;5048812;28;20045;-59
2022/09/23 02:15:15;;;;;;;40.37;30.83;;;;;;;;;;5048487;28;20051;-60
2022/09/23 02:17:44;;;;;;;31.93;27.83;;;;;;;;;;5048875;28;20052;-60
2022/09/23 02:20:13;;;;;;;38.90;29.30;;;;;;;;;;5048667;28;20052;-59
2022/09/23 02:22:46;;;;;;;37.43;29.90;;;;;;;;;;5048383;28;20052;-60
2022/09/23 02:25:12;;;;;;;47.07;32.87;;;;;;;;;;5048511;28;20102;-60
2022/09/23 02:27:51;;;;;;;39.43;31.17;;;;;;;;;;5048573;28;20194;-59
2022/09/23 02:30:20;;;;;;;41.73;32.47;;;;;;;;;;5048491;28;20049;-59
2022/09/23 02:32:49;;;;;;;42.17;31.43;;;;;;;;;;5048988;28;20041;-60
2022/09/23 02:35:42;;;;;;;36.80;29.23;;;;;;;;;;5048414;28;20063;-60
2022/09/23 02:38:28;;;;;;;46.65;32.85;;;;;;;;;;5046757;28;20057;-60
2022/09/23 02:41:01;;;;;;;42.93;32.47;;;;;;;;;;5048585;28;20079;-60
2022/09/23 02:43:34;;;;;;;40.08;32.30;;;;;;;;;;5048284;28;20049;-60
2022/09/23 02:46:01;;;;;;;41.78;32.65;;;;;;;;;;5048331;28;20049;-60
2022/09/23 02:48:30;;;;;;;38.53;31.77;;;;;;;;;;5048473;28;20130;-60
2022/09/23 02:50:57;;;;;;;43.50;33.63;;;;;;;;;;5048270;28;20045;-60
2022/09/23 02:53:23;;;;;;;38.63;32.83;;;;;;;;;;5048225;28;20151;-60
2022/09/23 02:55:49;;;;;;;49.70;34.13;;;;;;;;;;5047627;28;20099;-60
2022/09/23 02:58:16;;;;;;;43.83;33.67;;;;;;;;;;5048350;28;20045;-60
2022/09/23 03:01:05;;;;;;;42.37;33.93;;;;;;;;;;5048049;28;20493;-60
2022/09/23 03:04:03;;;;;;;46.40;33.37;;;;;;;;;;5048248;28;20059;-60
2022/09/23 03:06:40;;;;;;;43.00;31.87;;;;;;;;;;5048231;28;20051;-60
2022/09/23 03:09:18;;;;;;;49.27;36.63;;;;;;;;;;5048225;28;20048;-60
2022/09/23 03:11:48;;;;;;;41.80;31.87;;;;;;;;;;5048309;28;20090;-60
2022/09/23 03:14:16;;;;;;;44.43;33.00;;;;;;;;;;5047932;28;20051;-60
2022/09/23 03:16:42;;;;;;;42.03;31.17;;;;;;;;;;5048215;28;20060;-60
2022/09/23 03:19:24;;;;;;;35.30;29.07;;;;;;;;;;5047654;28;20049;-60
2022/09/23 03:22:00;;;;;;;41.30;30.90;;;;;;;;;;5052210;28;20537;-60
2022/09/23 03:24:27;;;;;;;45.93;33.37;;;;;;;;;;5052356;28;20110;-60
2022/09/23 03:26:54;;;;;;;36.77;29.70;;;;;;;;;;5051631;28;20055;-60
2022/09/23 03:29:21;;;;;;;45.47;34.27;;;;;;;;;;5051665;28;20440;-60
2022/09/23 03:31:47;;;;;;;38.77;28.70;;;;;;;;;;5051712;28;20043;-60
2022/09/23 03:34:23;;;;;;;37.90;30.20;;;;;;;;;;5051667;28;20049;-60
2022/09/23 03:36:54;;;;;;;41.93;31.70;;;;;;;;;;5051905;28;20159;-60
2022/09/23 03:39:27;;;;;;;38.90;30.97;;;;;;;;;;5051423;28;20139;-60
2022/09/23 03:41:55;;;;;;;35.03;29.27;;;;;;;;;;5050899;28;21034;-60
2022/09/23 03:44:22;;;;;;;38.80;30.13;;;;;;;;;;5051308;28;20562;-60
2022/09/23 03:46:48;;;;;;;38.17;30.37;;;;;;;;;;5052023;28;20091;-60
2022/09/23 03:49:17;;;;;;;35.43;28.53;;;;;;;;;;5051105;28;20116;-60
2022/09/23 03:51:43;;;;;;;39.80;30.93;;;;;;;;;;5051154;28;20067;-60
2022/09/23 03:54:09;;;;;;;38.93;30.83;;;;;;;;;;5051242;28;20049;-60
2022/09/23 03:56:36;;;;;;;34.80;27.70;;;;;;;;;;5051325;28;20541;-60
2022/09/23 03:59:02;;;;;;;37.60;30.27;;;;;;;;;;5051350;28;20045;-60
2022/09/23 04:01:28;;;;;;;37.23;28.10;;;;;;;;;;5051598;28;20048;-60
2022/09/23 04:03:54;;;;;;;38.00;30.60;;;;;;;;;;5051364;28;20041;-60
2022/09/23 04:06:21;;;;;;;34.10;28.57;;;;;;;;;;5051421;28;20045;-60
2022/09/23 04:08:47;;;;;;;38.67;31.10;;;;;;;;;;5051126;28;20461;-60
2022/09/23 04:11:13;;;;;;;34.93;29.77;;;;;;;;;;5051291;28;20748;-60
2022/09/23 04:13:39;;;;;;;35.13;28.00;;;;;;;;;;5051376;28;20044;-60
2022/09/23 04:16:06;;;;;;;37.07;28.57;;;;;;;;;;5050138;28;20525;-60
2022/09/23 04:18:32;;;;;;;35.60;29.57;;;;;;;;;;5050865;28;20041;-60
2022/09/23 04:20:59;;;;;;;36.63;30.20;;;;;;;;;;5050628;28;20517;-60
2022/09/23 04:23:26;;;;;;;37.50;30.73;;;;;;;;;;5050615;28;20136;-60
2022/09/23 04:25:52;;;;;;;37.90;29.17;;;;;;;;;;5051006;28;20064;-60
2022/09/23 04:28:18;;;;;;;38.83;31.17;;;;;;;;;;5050215;28;20053;-60
2022/09/23 04:30:45;;;;;;;38.97;29.47;;;;;;;;;;5050360;28;20115;-60
2022/09/23 04:33:11;;;;;;;36.60;28.80;;;;;;;;;;5050682;28;20072;-60
2022/09/23 04:35:38;;;;;;;41.83;31.50;;;;;;;;;;5050410;28;20652;-60
2022/09/23 04:38:07;;;;;;;33.20;28.20;;;;;;;;;;5050098;28;20049;-60
2022/09/23 04:40:33;;;;;;;32.93;26.97;;;;;;;;;;5050392;28;20557;-60
2022/09/23 04:42:59;;;;;;;33.57;27.57;;;;;;;;;;5049827;28;20048;-60
2022/09/23 04:45:25;;;;;;;35.47;29.77;;;;;;;;;;5050095;28;20036;-60
2022/09/23 04:47:51;;;;;;;34.33;26.43;;;;;;;;;;5050762;28;20045;-60
2022/09/23 04:50:18;;;;;;;36.00;29.17;;;;;;;;;;5049418;28;20044;-60
2022/09/23 04:52:44;;;;;;;37.93;30.30;;;;;;;;;;5050060;28;20049;-60
2022/09/23 04:55:10;;;;;;;39.37;30.63;;;;;;;;;;5049793;28;20057;-60
2022/09/23 04:57:36;;;;;;;32.30;27.37;;;;;;;;;;5049234;28;20049;-60
2022/09/23 05:00:02;;;;;;;36.43;28.30;;;;;;;;;;5048061;28;20600;-60
2022/09/23 05:02:28;;;;;;;32.63;27.70;;;;;;;;;;5047805;28;20059;-60
2022/09/23 05:04:55;;;;;;;34.20;28.27;;;;;;;;;;5048277;28;20152;-60
2022/09/23 05:07:21;;;;;;;42.07;30.50;;;;;;;;;;5048107;28;20080;-60
2022/09/23 05:09:47;;;;;;;32.27;28.77;;;;;;;;;;5048541;28;20049;-60
2022/09/23 05:12:13;;;;;;;36.40;29.43;;;;;;;;;;5048614;28;20045;-60
2022/09/23 05:14:39;;;;;;;35.60;28.53;;;;;;;;;;5049505;28;20415;-60
2022/09/23 05:17:05;;;;;;;37.27;27.50;;;;;;;;;;5049854;28;20045;-61
2022/09/23 05:19:31;;;;;;;35.13;28.87;;;;;;;;;;5049669;28;20044;-60
2022/09/23 05:21:57;;;;;;;38.17;29.67;;;;;;;;;;5049650;28;20044;-60
2022/09/23 05:24:24;;;;;;;40.67;29.77;;;;;;;;;;5049020;28;20057;-60
2022/09/23 05:26:50;;;;;;;36.97;29.50;;;;;;;;;;5049229;28;20056;-60
2022/09/23 05:29:16;;;;;;;39.63;30.93;;;;;;;;;;5048063;28;20049;-60
2022/09/23 05:31:43;;;;;;;35.73;29.20;;;;;;;;;;5038251;28;20049;-60
2022/09/23 05:34:09;;;;;;;38.87;30.90;;;;;;;;;;5029488;28;20052;-60
2022/09/23 05:36:36;;;;;;;33.67;28.03;;;;;;;;;;5029445;28;20389;-60
2022/09/23 05:39:02;;;;;;;43.03;31.73;;;;;;;;;;5028394;28;20038;-60
2022/09/23 05:41:28;;;;;;;39.90;29.87;;;;;;;;;;5029169;28;20095;-60
2022/09/23 05:43:55;;;;;;;37.70;28.93;;;;;;;;;;5028051;28;20060;-60
2022/09/23 05:46:22;;;;;;;43.13;29.17;;;;;;;;;;5047407;28;20055;-60
2022/09/23 05:48:49;;;;;;;34.23;27.80;;;;;;;;;;5048500;28;20049;-60
2022/09/23 05:51:20;;;;;;;37.73;27.77;;;;;;;;;;5047946;28;20055;-60
2022/09/23 05:53:46;;;;;;;33.33;27.20;;;;;;;;;;5048565;28;20060;-60
2022/09/23 05:56:13;;;;;;;31.73;25.57;;;;;;;;;;5048649;28;20037;-60
2022/09/23 05:58:39;;;;;;;31.63;26.20;;;;;;;;;;5048418;28;20044;-60
2022/09/23 06:01:09;;;;;;;31.43;26.37;;;;;;;;;;5048313;28;20048;-60
2022/09/23 06:03:35;;;;;;;29.70;25.10;;;;;;;;;;5048490;28;20060;-60
2022/09/23 06:06:01;;;;;;;31.23;24.80;;;;;;;;;;5049018;28;20041;-60
2022/09/23 06:08:27;;;;;;;32.30;24.83;;;;;;;;;;5047151;28;20106;-60
2022/09/23 06:10:54;;;;;;;28.30;23.40;;;;;;;;;;5047735;28;20056;-60
2022/09/23 06:13:20;;;;;;;29.07;23.80;;;;;;;;;;5028466;28;20136;-60
2022/09/23 06:15:46;;;;;;;23.53;20.23;;;;;;;;;;5028200;28;20470;-60
2022/09/23 06:18:12;;;;;;;25.30;19.93;;;;;;;;;;5036407;28;20045;-60
2022/09/23 06:20:38;;;;;;;25.50;19.30;;;;;;;;;;5048516;28;20090;-60
2022/09/23 06:23:05;;;;;;;24.37;17.20;;;;;;;;;;5048113;28;20049;-60
2022/09/23 06:25:32;;;;;;;21.67;16.70;;;;;;;;;;5047969;28;20052;-60
2022/09/23 06:27:58;;;;;;;20.37;16.23;;;;;;;;;;5043939;28;20152;-60
2022/09/23 06:30:25;;;;;;;17.43;14.93;;;;;;;;;;5045825;28;20040;-61
2022/09/23 06:32:52;;;;;;;20.33;14.57;;;;;;;;;;5048365;28;20048;-60
2022/09/23 06:35:22;;;;;;;17.63;14.83;;;;;;;;;;5047531;28;20041;-60
2022/09/23 06:37:48;;;;;;;19.27;14.03;;;;;;;;;;5047858;28;20502;-60
2022/09/23 06:40:15;;;;;;;14.73;12.83;;;;;;;;;;5047592;28;20094;-60
2022/09/23 06:42:41;;;;;;;18.07;13.63;;;;;;;;;;5047982;28;20067;-60
2022/09/23 06:45:10;;;;;;;17.10;14.13;;;;;;;;;;5043672;28;20365;-60
2022/09/23 06:47:36;;;;;;;17.43;12.33;;;;;;;;;;5048359;28;20040;-61
2022/09/23 06:50:03;;;;;;;13.40;11.97;;;;;;;;;;5041703;28;20175;-60
2022/09/23 06:52:29;;;;;;;15.83;12.47;;;;;;;;;;5028123;28;20054;-61
2022/09/23 06:54:56;;;;;;;13.97;11.90;;;;;;;;;;5028267;28;20053;-60
2022/09/23 06:57:23;;;;;;;15.73;11.93;;;;;;;;;;5028298;28;20187;-60
2022/09/23 06:59:49;;;;;;;13.13;11.30;;;;;;;;;;5026674;28;20053;-60
2022/09/23 07:02:16;;;;;;;13.93;11.20;;;;;;;;;;5034566;28;20075;-60
2022/09/23 07:04:42;;;;;;;17.07;12.10;;;;;;;;;;5047545;28;20053;-60
2022/09/23 07:07:10;;;;;;;15.90;11.40;;;;;;;;;;5047692;28;20055;-60
2022/09/23 07:09:37;;;;;;;14.77;10.97;;;;;;;;;;5047363;28;20060;-60
2022/09/23 07:12:03;;;;;;;14.87;11.10;;;;;;;;;;5047556;28;20049;-60
2022/09/23 07:14:29;;;;;;;13.13;10.23;;;;;;;;;;5046940;28;20151;-61
2022/09/23 07:16:55;;;;;;;12.47;10.20;;;;;;;;;;5046805;28;20120;-60
2022/09/23 07:19:21;;;;;;;13.70;10.27;;;;;;;;;;5047351;28;20147;-60
2022/09/23 07:21:47;;;;;;;14.40;10.53;;;;;;;;;;5046127;28;20057;-60
2022/09/23 07:24:13;;;;;;;13.20;11.23;;;;;;;;;;5047475;28;20499;-60
2022/09/23 07:26:39;;;;;;;17.63;10.13;;;;;;;;;;5046673;28;20037;-60
2022/09/23 07:29:05;;;;;;;12.23;9.23;;;;;;;;;;5047362;28;20052;-60
2022/09/23 07:31:32;;;;;;;16.37;10.30;;;;;;;;;;5047331;28;20041;-60
2022/09/23 07:34:00;;;;;;;11.90;9.53;;;;;;;;;;5046870;28;20037;-60
2022/09/23 07:36:26;;;;;;;11.47;9.73;;;;;;;;;;5047375;28;20511;-60
2022/09/23 07:39:00;;;;;;;14.00;9.60;;;;;;;;;;5047398;28;20055;-60
2022/09/23 07:41:27;;;;;;;11.07;8.80;;;;;;;;;;5047471;28;20088;-60
2022/09/23 07:43:57;;;;;;;13.13;9.33;;;;;;;;;;5047154;28;20056;-60
2022/09/23 07:46:24;;;;;;;12.23;9.77;;;;;;;;;;5046587;28;20139;-60
2022/09/23 07:48:51;;;;;;;11.73;8.40;;;;;;;;;;5047088;28;20507;-60
2022/09/23 07:51:34;;;;;;;14.60;9.00;;;;;;;;;;5047029;28;20041;-60
2022/09/23 07:54:00;;;;;;;13.80;9.00;;;;;;;;;;5047176;28;20052;-60
2022/09/23 07:56:28;;;;;;;12.23;7.80;;;;;;;;;;5047063;28;20045;-60
2022/09/23 07:59:00;;;;;;;14.20;8.33;;;;;;;;;;5046566;28;20494;-60
2022/09/23 08:01:31;;;;;;;13.97;8.70;;;;;;;;;;5047255;28;20099;-60
2022/09/23 08:03:58;;;;;;;10.50;8.27;;;;;;;;;;5047504;28;20311;-60
2022/09/23 08:06:24;;;;;;;11.87;7.80;;;;;;;;;;5048710;28;20048;-60
2022/09/23 08:08:50;;;;;;;10.10;7.93;;;;;;;;;;5050536;28;20503;-60
2022/09/23 08:11:16;;;;;;;11.23;7.53;;;;;;;;;;5050548;28;20052;-60
2022/09/23 08:13:42;;;;;;;9.80;7.43;;;;;;;;;;5050130;28;20045;-60
2022/09/23 08:16:09;;;;;;;10.80;7.50;;;;;;;;;;5050395;28;20041;-60
2022/09/23 08:18:35;;;;;;;10.00;7.03;;;;;;;;;;5050359;28;20491;-60
2022/09/23 08:21:01;;;;;;;9.83;6.87;;;;;;;;;;5050640;28;20047;-60
2022/09/23 08:23:32;;;;;;;12.47;7.17;;;;;;;;;;5050250;28;20513;-60
2022/09/23 08:25:58;;;;;;;10.73;7.83;;;;;;;;;;5049983;28;20049;-60
2022/09/23 08:28:25;;;;;;;9.47;6.97;;;;;;;;;;5050247;28;20525;-60
2022/09/23 08:30:51;;;;;;;9.47;6.97;;;;;;;;;;5050403;28;20049;-60
2022/09/23 08:33:18;;;;;;;10.53;7.90;;;;;;;;;;5050634;28;20044;-60
2022/09/23 08:35:44;;;;;;;15.07;7.80;;;;;;;;;;5049967;28;20233;-60
2022/09/23 08:38:10;;;;;;;11.20;6.73;;;;;;;;;;5050150;28;20080;-60
2022/09/23 08:40:38;;;;;;;8.20;7.13;;;;;;;;;;5050024;28;20048;-60
2022/09/23 08:43:07;;;;;;;13.87;7.33;;;;;;;;;;5050437;28;20152;-60
2022/09/23 08:45:35;;;;;;;12.63;8.33;;;;;;;;;;5050196;28;20501;-60
2022/09/23 08:48:08;;;;;;;9.03;7.30;;;;;;;;;;5049630;28;20053;-60
2022/09/23 08:50:47;;;;;;;12.05;7.97;;;;;;;;;;5049970;28;20045;-60
2022/09/23 08:53:34;;;;;;;10.70;6.97;;;;;;;;;;5050003;28;20048;-60
2022/09/23 08:56:03;;;;;;;8.47;6.03;;;;;;;;;;5049395;28;20438;-60
2022/09/23 08:58:48;;;;;;;11.13;6.50;;;;;;;;;;5049622;28;20557;-61
2022/09/23 09:01:22;;;;;;;11.20;6.17;;;;;;;;;;5049785;28;20048;-61
2022/09/23 09:03:48;;;;;;;9.33;6.73;;;;;;;;;;5049731;28;20040;-60
2022/09/23 09:06:24;;;;;;;7.13;6.13;;;;;;;;;;5049769;28;20411;-60
2022/09/23 09:08:54;;;;;;;10.60;6.77;;;;;;;;;;5049417;28;20175;-60
2022/09/23 09:11:22;;;;;;;9.50;6.47;;;;;;;;;;5049408;28;20124;-60
2022/09/23 09:13:57;;;;;;;9.63;5.73;;;;;;;;;;5049699;28;20099;-60
2022/09/23 09:16:38;;;;;;;8.17;5.47;;;;;;;;;;5049808;28;20049;-60
2022/09/23 09:19:08;;;;;;;11.67;6.07;;;;;;;;;;5048491;28;20049;-61
2022/09/23 09:21:41;;;;;;;9.37;5.43;;;;;;;;;;5049239;28;20529;-60
2022/09/23 09:24:15;;;;;;;10.40;5.85;;;;;;;;;;5049212;28;20360;-61
2022/09/23 09:26:41;;;;;;;14.33;6.17;;;;;;;;;;5049250;28;20045;-60
2022/09/23 09:29:16;;;;;;;9.90;5.67;;;;;;;;;;5048060;28;20052;-60
2022/09/23 09:31:44;;;;;;;9.70;5.87;;;;;;;;;;5049301;28;20044;-60
2022/09/23 09:34:15;;;;;;;7.10;4.93;;;;;;;;;;5048550;28;20079;-60
2022/09/23 09:36:44;;;;;;;11.00;5.57;;;;;;;;;;5049358;28;20501;-60
2022/09/23 09:39:14;;;;;;;9.73;5.50;;;;;;;;;;5049008;28;20395;-61
2022/09/23 09:41:41;;;;;;;8.77;5.07;;;;;;;;;;5048687;28;20037;-61
2022/09/23 09:44:16;;;;;;;7.20;5.20;;;;;;;;;;5048354;28;20089;-60
2022/09/23 09:46:53;;;;;;;8.17;5.70;;;;;;;;;;5048967;28;20443;-61
2022/09/23 09:49:24;;;;;;;12.17;6.50;;;;;;;;;;5048789;28;20453;-60
2022/09/23 09:52:11;;;;;;;8.23;5.80;;;;;;;;;;5048250;28;20052;-60
2022/09/23 09:54:38;;;;;;;10.17;5.80;;;;;;;;;;5048667;28;20047;-61
2022/09/23 09:57:05;;;;;;;7.67;6.23;;;;;;;;;;5048591;28;20123;-60
2022/09/23 09:59:31;;;;;;;9.57;5.63;;;;;;;;;;5048803;28;20044;-61
2022/09/23 10:02:21;;;;;;;8.20;5.90;;;;;;;;;;5048902;28;20048;-61
2022/09/23 10:04:54;;;;;;;10.57;5.53;;;;;;;;;;5048688;28;20550;-60
2022/09/23 10:07:24;;;;;;;6.45;5.72;;;;;;;;;;5048534;28;20045;-61
2022/09/23 10:09:50;;;;;;;8.40;5.73;;;;;;;;;;5048488;28;20466;-61
2022/09/23 10:12:23;;;;;;;7.93;6.33;;;;;;;;;;5048447;28;20056;-61
2022/09/23 10:14:51;;;;;;;8.70;5.63;;;;;;;;;;5048519;28;20558;-60
2022/09/23 10:17:21;;;;;;;11.30;6.73;;;;;;;;;;5048123;28;20501;-61
2022/09/23 10:19:49;;;;;;;8.90;5.50;;;;;;;;;;5048446;28;20108;-60
2022/09/23 10:22:20;;;;;;;12.60;6.10;;;;;;;;;;5048021;28;20048;-60
2022/09/23 10:24:48;;;;;;;9.00;5.77;;;;;;;;;;5048259;28;20118;-61
2022/09/23 10:27:14;;;;;;;7.90;5.50;;;;;;;;;;5047934;28;20391;-60
2022/09/23 10:29:48;;;;;;;8.70;5.47;;;;;;;;;;5047359;28;20094;-61
2022/09/23 10:32:32;;;;;;;11.23;5.70;;;;;;;;;;5047777;28;20048;-61
2022/09/23 10:35:12;;;;;;;10.53;5.87;;;;;;;;;;5048402;28;20119;-61
2022/09/23 10:37:38;;;;;;;7.30;5.40;;;;;;;;;;5047939;28;20507;-60
2022/09/23 10:48:42;;;;;;;6.77;5.50;;;;;;;;;;5047848;28;20478;-60
2022/09/23 10:51:14;;;;;;;8.10;5.43;;;;;;;;;;5047727;28;20449;-61
2022/09/23 10:54:05;;;;;;;8.27;5.70;;;;;;;;;;5047854;28;20049;-60
2022/09/23 10:56:41;;;;;;;8.00;5.33;;;;;;;;;;5047068;28;20087;-60
2022/09/23 10:59:06;;;;;;;11.00;5.80;;;;;;;;;;5047597;28;20052;-60
2022/09/23 11:01:39;;;;;;;7.67;5.20;;;;;;;;;;5047789;28;20064;-61
2022/09/23 11:04:08;;;;;;;10.23;5.28;;;;;;;;;;5047792;28;20483;-60
2022/09/23 11:06:40;;;;;;;8.40;5.13;;;;;;;;;;5047482;28;20045;-60
2022/09/23 11:09:10;;;;;;;8.47;5.80;;;;;;;;;;5047444;28;20136;-61
2022/09/23 11:11:48;;;;;;;9.50;5.40;;;;;;;;;;5047554;28;20080;-60
2022/09/23 11:14:32;;;;;;;9.40;5.23;;;;;;;;;;5047290;28;20045;-61
2022/09/23 11:17:14;;;;;;;8.73;5.60;;;;;;;;;;5047196;28;20041;-60
2022/09/23 11:19:59;;;;;;;11.87;6.10;;;;;;;;;;5047686;28;20045;-60
2022/09/23 11:22:44;;;;;;;8.13;5.10;;;;;;;;;;5047370;28;20052;-60
2022/09/23 11:25:17;;;;;;;7.63;5.63;;;;;;;;;;5047400;28;20103;-60
2022/09/23 11:27:43;;;;;;;9.23;6.18;;;;;;;;;;5047474;28;20418;-60
2022/09/23 11:30:11;;;;;;;8.00;5.97;;;;;;;;;;5047117;28;20045;-60
2022/09/23 11:32:56;;;;;;;9.00;5.07;;;;;;;;;;5047723;28;20041;-60
2022/09/23 11:35:24;;;;;;;9.07;5.50;;;;;;;;;;5047288;28;20417;-61
2022/09/23 11:37:54;;;;;;;7.83;5.77;;;;;;;;;;5047436;28;20085;-60
2022/09/23 11:40:30;;;;;;;11.67;5.80;;;;;;;;;;5046922;28;20063;-60
2022/09/23 11:43:01;;;;;;;11.47;5.17;;;;;;;;;;5051251;28;20044;-60
2022/09/23 11:45:31;;;;;;;9.63;6.67;;;;;;;;;;5050945;28;20080;-60
2022/09/23 11:47:59;;;;;;;9.87;5.57;;;;;;;;;;5051100;28;20124;-61
2022/09/23 11:50:37;;;;;;;8.43;5.27;;;;;;;;;;5051020;28;20510;-61
2022/09/23 11:53:08;;;;;;;11.47;6.20;;;;;;;;;;5050739;28;20049;-61
2022/09/23 11:55:39;;;;;;;9.10;5.70;;;;;;;;;;5050945;28;20053;-60
2022/09/23 11:58:11;;;;;;;8.30;5.30;;;;;;;;;;5050779;28;20053;-60
2022/09/23 12:00:41;;;;;;;13.43;5.50;;;;;;;;;;5050381;28;20041;-61
2022/09/23 12:03:27;;;;;;;8.77;5.23;;;;;;;;;;5050797;28;20060;-60
2022/09/23 12:05:58;;;;;;;7.70;5.20;;;;;;;;;;5037190;28;20087;-61
2022/09/23 12:08:27;;;;;;;11.03;5.77;;;;;;;;;;5050579;28;20085;-60
2022/09/23 12:11:00;;;;;;;8.60;5.27;;;;;;;;;;5050666;28;20493;-61
2022/09/23 12:13:47;;;;;;;12.40;5.57;;;;;;;;;;5050149;28;20106;-60
2022/09/23 12:16:27;;;;;;;9.67;5.27;;;;;;;;;;5050470;28;20522;-60
2022/09/23 12:19:12;;;;;;;8.97;5.30;;;;;;;;;;5050618;28;20041;-60
2022/09/23 12:21:38;;;;;;;9.37;5.63;;;;;;;;;;5049322;28;20060;-60
2022/09/23 12:24:23;;;;;;;6.93;4.60;;;;;;;;;;5049927;28;20049;-61
2022/09/23 12:26:52;;;;;;;9.93;5.23;;;;;;;;;;5050363;28;20061;-60
2022/09/23 12:29:18;;;;;;;7.87;5.33;;;;;;;;;;5050292;28;20472;-61
2022/09/23 12:31:45;;;;;;;6.47;5.10;;;;;;;;;;5050348;28;20045;-61
2022/09/23 12:34:37;;;;;;;9.60;5.07;;;;;;;;;;5049877;28;20064;-61
2022/09/23 12:37:04;;;;;;;7.37;5.20;;;;;;;;;;5019393;28;20052;-60
2022/09/23 12:39:31;;;;;;;9.27;4.93;;;;;;;;;;5050221;28;20051;-61
2022/09/23 12:42:02;;;;;;;8.07;5.10;;;;;;;;;;5049039;28;20041;-61
2022/09/23 12:44:40;;;;;;;5.67;5.03;;;;;;;;;;5049976;28;20099;-61
2022/09/23 12:47:23;;;;;;;10.47;5.10;;;;;;;;;;5050005;28;20420;-61
2022/09/23 12:49:50;;;;;;;7.00;4.83;;;;;;;;;;5050094;28;20067;-60
2022/09/23 12:52:16;;;;;;;10.30;5.10;;;;;;;;;;5049718;28;20045;-61
2022/09/23 12:54:46;;;;;;;12.40;4.93;;;;;;;;;;5049971;28;20115;-60
2022/09/23 12:57:32;;;;;;;7.87;4.97;;;;;;;;;;5049041;28;20080;-61
2022/09/23 13:00:11;;;;;;;5.93;4.40;;;;;;;;;;5036270;28;20881;-60
2022/09/23 13:08:31;;;;;;;7.97;4.82;;;;;;;;;;5049599;28;20080;-61
2022/09/23 13:10:59;;;;;;;9.60;4.83;;;;;;;;;;5047995;28;20087;-60
2022/09/23 13:13:30;;;;;;;7.17;4.67;;;;;;;;;;5049589;28;20164;-61
2022/09/23 13:16:09;;;;;;;9.03;4.87;;;;;;;;;;5049806;28;20095;-60
2022/09/23 13:18:54;;;;;;;8.77;5.07;;;;;;;;;;5049259;28;20048;-60
2022/09/23 13:21:39;;;;;;;7.40;5.27;;;;;;;;;;5049605;28;20077;-60
2022/09/23 13:24:23;;;;;;;12.07;4.90;;;;;;;;;;5048799;28;20071;-60
2022/09/23 13:26:53;;;;;;;12.03;6.60;;;;;;;;;;5049508;28;20400;-60
2022/09/23 13:29:31;;;;;;;8.17;4.70;;;;;;;;;;5049551;28;20512;-60
2022/09/23 13:31:57;;;;;;;5.87;4.60;;;;;;;;;;5048815;28;20045;-61
2022/09/23 13:34:26;;;;;;;8.07;4.93;;;;;;;;;;5049300;28;20049;-60
2022/09/23 13:36:52;;;;;;;6.77;4.30;;;;;;;;;;5049091;28;20053;-60
2022/09/23 13:39:28;;;;;;;8.77;5.27;;;;;;;;;;5048966;28;20052;-60
2022/09/23 13:41:59;;;;;;;8.50;4.50;;;;;;;;;;5048904;28;20484;-60
2022/09/23 13:44:27;;;;;;;8.97;4.83;;;;;;;;;;5048457;28;20053;-61
2022/09/23 13:46:57;;;;;;;8.87;4.70;;;;;;;;;;5048824;28;20114;-61
2022/09/23 13:49:27;;;;;;;10.37;4.90;;;;;;;;;;5048795;28;20079;-61
2022/09/23 13:51:55;;;;;;;10.00;5.13;;;;;;;;;;5048686;28;20048;-60
2022/09/23 13:54:35;;;;;;;7.47;4.80;;;;;;;;;;5048748;28;20128;-61
2022/09/23 13:57:01;;;;;;;7.03;4.90;;;;;;;;;;5048693;28;20045;-61
2022/09/23 13:59:27;;;;;;;8.23;4.67;;;;;;;;;;5048039;28;20041;-60
2022/09/23 14:02:02;;;;;;;9.27;4.90;;;;;;;;;;5048802;28;20414;-61
2022/09/23 14:04:28;;;;;;;8.83;4.90;;;;;;;;;;5048442;28;20085;-61
2022/09/23 14:06:55;;;;;;;9.90;6.37;;;;;;;;;;5048744;28;20041;-61
2022/09/23 14:09:24;;;;;;;12.00;5.47;;;;;;;;;;5048153;28;20483;-60
2022/09/23 14:11:51;;;;;;;9.77;5.27;;;;;;;;;;5047759;28;20450;-61
2022/09/23 14:14:18;;;;;;;8.60;5.13;;;;;;;;;;5048337;28;20075;-60
2022/09/23 14:16:44;;;;;;;8.30;4.93;;;;;;;;;;5048496;28;20048;-61
2022/09/23 14:19:15;;;;;;;6.73;5.00;;;;;;;;;;5048161;28;20045;-60
2022/09/23 14:21:41;;;;;;;10.63;5.57;;;;;;;;;;5048329;28;20080;-60
2022/09/23 14:24:21;;;;;;;7.60;4.90;;;;;;;;;;5048003;28;20045;-60
2022/09/23 14:27:07;;;;;;;8.63;5.43;;;;;;;;;;5047717;28;20144;-60
2022/09/23 14:29:35;;;;;;;8.40;5.30;;;;;;;;;;5034289;28;20084;-60
2022/09/23 14:32:03;;;;;;;9.60;5.70;;;;;;;;;;5048408;28;20051;-61
2022/09/23 14:34:41;;;;;;;10.50;6.03;;;;;;;;;;5048132;28;20052;-60
2022/09/23 14:40:14;;;;;;;10.03;6.00;;;;;;;;;;5048005;28;20415;-61
2022/09/23 14:42:40;;;;;;;;;;;;;;;;;;5047969;28;20099;-61
2022/09/23 14:45:07;;;;;;;10.77;5.97;;;;;;;;;;5048107;28;19925;-61
2022/09/23 14:47:34;;;;;;;9.03;5.93;;;;;;;;;;5048088;28;20106;-61
2022/09/23 14:52:48;;;;;;;11.20;7.13;;;;;;;;;;5047945;28;20088;-60
2022/09/23 14:55:15;;;;;;;10.50;6.30;;;;;;;;;;5047537;28;20511;-61
2022/09/23 14:57:42;;;;;;;9.47;6.47;;;;;;;;;;5047965;28;20099;-60
2022/09/23 15:00:08;;;;;;;9.50;6.17;;;;;;;;;;5047758;28;20049;-60
2022/09/23 15:02:39;;;;;;;10.63;5.60;;;;;;;;;;5047905;28;20716;-61
2022/09/23 15:05:21;;;;;;;8.83;6.23;;;;;;;;;;5048199;28;20124;-61
2022/09/23 15:07:49;;;;;;;8.40;5.87;;;;;;;;;;5047080;28;20064;-61